NOAA/GLERL Met Station at Muskegon, MI

Previous 5 days (top of hour only)
See slso Previous 3 Hours (2 minute increments)
Jump down to Data
Switch to [English][Metric]
Zoom: Click and drag, Pan: shift-click and drag, Unzoom: double-click, Unzoom All





Zoom: Click and drag, Pan: shift-click and drag, Unzoom: double-click, Unzoom All

Note: Speed = mean wind during 2-minute period at top of hour,
Gust = max wind during 2-minute period at top of hour,
Peak = max wind during entire hour.
• See also 5-day windrose plot

NOAA/GLERL Met Station at Muskegon, MI

Previous 5 days (top of hour only)
See slso Previous 3 Hours (2 minute increments)
Jump up to Graphs
Switch to [English][Metric]
                  Wind  Wind  Wind   Air   Dew   Rel     Sta   PAR
                   Spd   Gst   Dir  Temp    Pt   Hum    Pres uE/m2/
YYYY-MM-DD   EST   kts   kts   deg     F     F     %   in Hg   sec
2016-02-08 16:00  11.9  12.6   343  34.5  31.8  89.7   29.01   309
2016-02-08 15:00   5.1   5.8   320  35.2  31.9  87.5   29.00   895
2016-02-08 14:00   6.8   7.0   232  35.1  32.3  89.4   28.99  1263
2016-02-08 13:00   6.6   6.8   215  35.2  31.5  86.2   29.00  1089
2016-02-08 12:00   7.2   7.4   211  37.0  30.6  77.4   29.01  2124
2016-02-08 11:00   5.1   5.8   184  37.6  30.2  74.5   29.01  1518
2016-02-08 10:00   4.5   5.2    96  33.6  30.4  87.8   29.01   363
2016-02-08 09:00   1.9   2.5   106  32.5  29.7  89.3   29.00    96
2016-02-08 08:00   3.7   4.3   256  32.9  30.4  90.5   29.00     6
2016-02-08 07:00   5.1   5.2   257  33.8  30.8  88.5   28.99     2
2016-02-08 06:00  10.1  10.5   273  34.7  30.9  86.0   28.99     2
2016-02-08 05:00  11.3  11.9   265  34.7  31.3  87.4   28.99     2
2016-02-08 04:00  11.9  12.4   268  34.9  31.3  86.5   28.99     2
2016-02-08 03:00  11.9  12.8   266  35.1  31.2  85.5   29.01     2
2016-02-08 02:00  13.8  14.8   274  35.4  30.7  82.6   29.02     2
2016-02-08 01:00  15.0  15.7   274  35.8  30.7  81.7   29.03     2
2016-02-08 00:00  15.4  16.3   273  35.8  31.0  82.4   29.05     2
2016-02-07 23:00  14.0  15.0   273  36.3  30.8  80.3   29.06     2
2016-02-07 22:00  12.4  13.2   271  36.9  31.8  81.6   29.07     2
2016-02-07 21:00  15.2  15.9   251  36.7  34.1  90.1   29.07     2
2016-02-07 20:00  17.1  17.7   240  37.2  33.5  86.1   29.09     2
2016-02-07 19:00  16.7  17.5   249  37.0  33.3  86.1   29.10     2
2016-02-07 18:00   9.5  10.7   198  36.7  33.3  87.4   29.10    77
2016-02-07 17:00  13.4  14.0   200  35.4  32.7  89.6   29.09   310
2016-02-07 16:00  14.8  15.4   212  36.7  33.0  86.3   29.09   305
2016-02-07 15:00  15.0  15.7   205  36.5  32.7  85.9   29.08   420
2016-02-07 14:00  15.9  17.1   210  36.7  32.6  84.9   29.10   807
2016-02-07 13:00  15.9  17.1   210  36.9  32.6  84.2   29.12   843
2016-02-07 12:00  16.9  17.9   210  37.6  32.3  81.0   29.15  1678
2016-02-07 11:00  19.1  20.0   216  36.9  32.4  83.6   29.16   852
2016-02-07 10:00  20.6  21.8   218  36.7  32.3  84.1   29.17   326
2016-02-07 09:00  16.7  17.5   203  35.1  32.3  89.7   29.20   222
2016-02-07 08:00  18.3  19.4   187  34.3  32.3  92.2   29.23    15
2016-02-07 07:00  18.1  19.1   188  34.2  32.4  93.3   29.25     2
2016-02-07 06:00  16.1  18.9   185  33.8  32.5  94.9   29.26     2
2016-02-07 05:00  14.0  15.2   184  33.6  32.4  95.2   29.31     2
2016-02-07 04:00  16.3  16.9   184  34.2  32.8  94.7   29.34     2
2016-02-07 03:00   9.3   9.9   208  33.6  32.1  94.1   29.38     2
2016-02-07 02:00  10.9  11.3   220  34.3  32.7  93.5   29.40     2
2016-02-07 01:00  13.2  14.0   221  35.1  33.0  92.0   29.42     2
2016-02-07 00:00  10.9  11.3   213  33.6  32.3  95.0   29.43     2
2016-02-06 23:00  11.9  12.8   183  32.7  31.2  93.9   29.44     2
2016-02-06 22:00   8.7   9.1   215  32.5  30.3  91.5   29.48     2
2016-02-06 21:00   8.2   8.4   237  33.8  31.1  89.6   29.50     2
2016-02-06 20:00  11.1  11.9   254  34.0  30.3  86.3   29.52     2
2016-02-06 19:00  14.4  15.2   265  33.6  29.0  83.0   29.53     2
2016-02-06 18:00  16.9  17.9   271  33.8  29.2  82.9   29.52     7
2016-02-06 17:00  16.9  18.9   264  33.8  28.7  81.3   29.52    56
2016-02-06 16:00  15.4  16.5   264  33.8  28.4  80.3   29.53   117
2016-02-06 15:00  16.9  19.1   251  33.3  28.2  81.3   29.53   199
2016-02-06 14:00  15.9  17.9   264  33.1  27.9  81.0   29.55   333
2016-02-06 13:00  16.1  17.7   248  32.9  27.1  79.1   29.55   648
2016-02-06 12:00  16.1  17.7   266  32.7  26.1  76.4   29.59   390
2016-02-06 11:00  17.1  19.2   263  33.1  24.6  70.6   29.59   788
2016-02-06 10:00  18.7  20.6   271  33.3  22.9  65.3   29.60   327
2016-02-06 09:00  19.1  20.6   256  33.3  23.2  66.1   29.61  1088
2016-02-06 08:00  16.9  18.7   261  33.1  22.0  63.5   29.60    27
2016-02-06 07:00  17.9  19.8   268  33.1  22.0  63.4   29.61     2
2016-02-06 06:00  15.0  16.3   271  32.9  26.0  75.6   29.62     2
2016-02-06 05:00  15.2  16.5   272  32.5  24.5  72.0   29.62     2
2016-02-06 04:00  15.9  16.5   263  32.5  23.5  69.1   29.61     2
2016-02-06 03:00  13.2  13.8   269  32.2  22.5  67.1   29.64     2
2016-02-06 02:00   8.9   9.9   266  31.8  20.4  62.5   29.64     2
2016-02-06 01:00   6.8   7.8   286  31.3  21.0  65.4   29.66     2
2016-02-06 00:00   5.1   6.2   294  30.4  20.1  65.3   29.67     2
2016-02-05 23:00   4.7   5.4   335  29.7  18.5  62.9   29.69     2
2016-02-05 22:00   6.8   7.8   329  29.3  18.2  62.8   29.70     2
2016-02-05 21:00   6.2   7.8   332  28.9  17.8  62.7   29.70     2
2016-02-05 20:00   9.9  10.9   310  28.6  18.5  65.6   29.72     2
2016-02-05 19:00  11.3  12.8   323  28.4  18.7  66.8   29.72     2
2016-02-05 18:00  12.4  13.8   325  28.4  19.5  68.9   29.71    21
2016-02-05 17:00  12.4  15.9   336  28.9  19.6  67.9   29.70   348
2016-02-05 16:00  13.6  15.6   329  30.4  21.1  68.1   29.70   843
2016-02-05 15:00  13.4  15.0   340  30.7  21.1  67.1   29.68  1992
2016-02-05 14:00  11.9  13.0   339  29.8  22.7  74.4   29.69  1465
2016-02-05 13:00  14.2  15.6   330  29.7  23.6  77.9   29.70   983
2016-02-05 12:00  13.8  15.7   330  30.4  24.1  77.2   29.71   726
2016-02-05 11:00  16.1  17.5   333  30.4  24.7  79.1   29.71   371
2016-02-05 10:00  12.4  13.2   334  31.6  26.0  79.4   29.70   243
2016-02-05 09:00   2.9   3.3    76  29.7  25.9  85.7   29.69    43
2016-02-05 08:00   9.5  10.9   342  32.2  27.2  81.6   29.68     8
2016-02-05 07:00   8.4   9.1   319  32.5  27.5  81.3   29.65     2
2016-02-05 06:00  10.1  10.9   307  32.5  27.7  82.0   29.65     2
2016-02-05 05:00  11.9  12.8   315  32.5  27.0  79.8   29.64     2
2016-02-05 04:00  12.6  13.2   296  33.1  26.1  75.2   29.64     2
2016-02-05 03:00  12.1  13.0   281  33.1  26.2  75.7   29.64     2
2016-02-05 02:00  14.4  15.6   260  32.7  25.8  75.5   29.63     2
2016-02-05 01:00  15.2  16.9   274  32.2  24.3  72.4   29.63     2
2016-02-05 00:00  15.6  16.9   246  31.8  22.7  68.8   29.62     2
2016-02-04 23:00  11.5  13.2   253  31.1  21.4  66.9   29.62     2
2016-02-04 22:00  11.3  13.4   246  29.5  20.1  67.6   29.63     2
2016-02-04 21:00   7.8   8.9   228  28.0  18.3  66.4   29.63     2
2016-02-04 20:00   7.6   8.6   236  27.3  17.5  66.3   29.63     2
2016-02-04 19:00   7.8   9.1   274  27.0  17.0  65.7   29.62     2
2016-02-04 18:00   6.8   8.9   318  26.8  17.3  67.2   29.61    22
2016-02-04 17:00  10.7  12.4   304  27.1  17.6  67.0   29.59   837
2016-02-04 16:00  10.7  13.4   318  27.0  16.8  65.2   29.57   365
2016-02-04 15:00  13.2  14.2   317  26.6  17.7  68.7   29.56   658
2016-02-04 14:00  13.2  14.4   319  26.6  19.1  73.1   29.55   725
2016-02-04 13:00  13.0  14.6   300  26.4  19.3  74.2   29.55   670
2016-02-04 12:00  11.7  13.2   305  26.6  19.0  72.7   29.57   602
2016-02-04 11:00  17.1  19.4   300  27.0  21.6  80.0   29.56   542
2016-02-04 10:00  16.3  18.7   295  26.6  18.8  72.2   29.55   173
2016-02-04 09:00  17.9  20.2   298  27.0  20.3  75.7   29.53    41
2016-02-04 08:00  12.1  15.0   298  28.0  22.6  79.8   29.50     6
2016-02-04 07:00  16.5  17.9   300  28.8  22.8  78.0   29.48     2
2016-02-04 06:00  14.6  16.1   299  29.3  22.8  76.4   29.47     2
2016-02-04 05:00  15.4  17.9   310  30.0  23.9  77.7   29.45     2
2016-02-04 04:00  15.7  17.3   323  30.6  24.1  76.8   29.43     2
2016-02-04 03:00  12.6  15.4   341  30.4  22.6  72.5   29.42     2
2016-02-04 02:00  16.7  17.7   340  30.7  23.0  72.8   29.40     2
2016-02-04 01:00  17.3  19.2   345  31.3  23.7  73.3   29.38     2
2016-02-04 00:00  14.2  16.9   353  31.1  24.7  76.9   29.36     2
2016-02-03 23:00  16.3  21.2   351  32.0  25.6  76.9   29.32     2
2016-02-03 22:00  18.3  21.0   348  32.5  26.6  78.4   29.29     2
2016-02-03 21:00  16.3  19.4   346  32.7  28.1  83.0   29.27     2
2016-02-03 20:00  21.0  24.9   345  31.8  30.1  93.2   29.23     2
2016-02-03 19:00  14.8  17.3   345  32.7  30.3  90.6   29.20     2